Time;durP1;ratioP1;P1;durP2;ratioP2;P2;SDS_P1;SDS_P2;PMS_P1;PMS_P2;Temp;Humidity;BMP_temperature;BMP_pressure;BME280_temperature;BME280_humidity;BME280_pressure;Samples;Min_cycle;Max_cycle;Signal;HPM_P1;HPM_P2
2022/03/29 00:00:27;;;;;;;26.67;15.25;;;;;;;7.83;74.92;101607.91;5068611;28;20032;-78
2022/03/29 00:02:53;;;;;;;28.88;15.77;;;;;;;7.78;75.48;101606.47;5073111;28;20032;-77
2022/03/29 00:05:18;;;;;;;29.40;15.77;;;;;;;7.77;75.59;101612.63;5090479;28;20028;-77
2022/03/29 00:07:44;;;;;;;32.53;16.65;;;;;;;7.76;75.70;101605.69;5088612;28;20024;-75
2022/03/29 00:10:10;;;;;;;28.13;17.00;;;;;;;7.74;76.05;101603.16;5090994;28;20523;-74
2022/03/29 00:12:36;;;;;;;30.88;16.67;;;;;;;7.71;76.19;101605.91;5091193;28;20020;-74
2022/03/29 00:15:04;;;;;;;29.88;17.23;;;;;;;7.68;76.46;101603.47;5089093;28;20445;-75
2022/03/29 00:17:29;;;;;;;33.58;17.95;;;;;;;7.67;76.57;101600.91;5074604;28;20035;-75
2022/03/29 00:19:55;;;;;;;29.67;17.95;;;;;;;7.65;76.36;101602.75;5060031;28;20384;-76
2022/03/29 00:22:20;;;;;;;29.33;17.75;;;;;;;7.65;76.81;101602.75;5069740;28;20036;-76
2022/03/29 00:24:45;;;;;;;30.70;18.48;;;;;;;7.61;77.00;101596.00;5070558;28;20021;-75
2022/03/29 00:27:11;;;;;;;32.92;18.58;;;;;;;7.59;77.07;101592.56;5070363;28;20024;-75
2022/03/29 00:29:37;;;;;;;32.28;17.95;;;;;;;7.55;77.28;101590.09;5068710;28;20021;-76
2022/03/29 00:32:03;;;;;;;35.75;19.20;;;;;;;7.53;77.37;101588.47;5070117;28;20056;-76
2022/03/29 00:34:28;;;;;;;30.77;18.73;;;;;;;7.52;77.96;101589.41;5085879;28;20129;-75
2022/03/29 00:36:54;;;;;;;28.63;18.70;;;;;;;7.52;78.03;101582.41;5062926;28;20391;-76
2022/03/29 00:39:19;;;;;;;34.65;18.45;;;;;;;7.52;78.30;101577.16;5069013;28;20093;-76
2022/03/29 00:41:45;;;;;;;29.83;18.75;;;;;;;7.51;78.41;101569.38;5070133;28;20464;-76
2022/03/29 00:44:10;;;;;;;29.05;18.92;;;;;;;7.51;78.66;101570.22;5069543;28;20025;-77
2022/03/29 00:46:35;;;;;;;34.13;20.63;;;;;;;7.51;78.79;101570.22;5070494;28;20107;-77
2022/03/29 00:49:01;;;;;;;29.90;19.63;;;;;;;7.49;78.42;101566.84;5070112;28;20021;-76
2022/03/29 00:51:27;;;;;;;27.30;19.42;;;;;;;7.47;78.68;101560.00;5069395;28;20032;-76
2022/03/29 00:53:53;;;;;;;32.22;19.75;;;;;;;7.45;78.48;101554.84;5055244;28;20025;-76
2022/03/29 00:56:19;;;;;;;31.88;19.75;;;;;;;7.44;79.14;101561.00;5065866;28;20032;-77
2022/03/29 00:58:45;;;;;;;33.30;20.52;;;;;;;7.42;79.43;101549.75;5069015;28;20037;-76
2022/03/29 01:01:11;;;;;;;31.45;20.65;;;;;;;7.41;79.67;101553.28;5069346;28;20035;-77
2022/03/29 01:03:37;;;;;;;34.83;21.33;;;;;;;7.40;79.50;101546.34;5084678;28;20114;-76
2022/03/29 01:06:03;;;;;;;30.42;21.15;;;;;;;7.36;79.85;101539.59;5089041;28;20098;-76
2022/03/29 01:08:28;;;;;;;33.20;21.65;;;;;;;7.33;80.15;101544.97;5089923;28;20024;-75
2022/03/29 01:10:54;;;;;;;34.75;21.75;;;;;;;7.32;80.15;101540.66;5064901;28;20036;-75
2022/03/29 01:13:20;;;;;;;34.75;21.63;;;;;;;7.30;79.98;101537.28;5049949;28;20032;-76
2022/03/29 01:15:45;;;;;;;31.98;21.27;;;;;;;7.28;80.07;101536.50;5072979;28;20119;-76
2022/03/29 01:18:13;;;;;;;36.28;22.25;;;;;;;7.21;80.89;101532.50;5067102;28;20025;-76
2022/03/29 01:20:42;;;;;;;31.95;21.33;;;;;;;7.21;80.54;101529.88;5067753;28;20464;-75
2022/03/29 01:23:09;;;;;;;33.88;21.20;;;;;;;7.18;80.25;101532.63;5068900;28;20027;-75
2022/03/29 01:25:38;;;;;;;35.60;21.95;;;;;;;7.15;80.68;101524.91;5068701;28;20033;-75
2022/03/29 01:28:05;;;;;;;35.00;22.45;;;;;;;7.13;80.92;101539.84;5058949;28;20078;-75
2022/03/29 01:30:31;;;;;;;35.70;22.20;;;;;;;7.10;80.83;101524.28;5053449;28;20032;-76
2022/03/29 01:33:03;;;;;;;37.03;23.58;;;;;;;7.07;82.01;101527.06;5052203;28;20064;-76
2022/03/29 01:35:30;;;;;;;32.17;22.60;;;;;;;7.10;81.97;101525.16;5055668;28;20078;-76
2022/03/29 01:37:56;;;;;;;34.67;23.85;;;;;;;7.08;81.76;101528.75;5072830;28;20106;-76
2022/03/29 01:40:24;;;;;;;34.78;23.30;;;;;;;7.07;81.36;101532.28;5071706;28;20575;-76
2022/03/29 01:42:52;;;;;;;37.60;23.25;;;;;;;7.03;81.46;101528.13;5068914;28;20036;-76
2022/03/29 01:45:19;;;;;;;39.75;24.20;;;;;;;7.00;81.63;101521.28;5054285;28;20029;-75
2022/03/29 01:47:44;;;;;;;33.50;23.35;;;;;;;6.97;81.62;101515.34;5058739;28;20020;-75
2022/03/29 01:50:11;;;;;;;36.33;24.38;;;;;;;6.93;82.36;101514.66;5088203;28;20020;-75
2022/03/29 01:52:41;;;;;;;36.00;25.05;;;;;;;6.92;82.60;101515.59;5087779;28;20024;-75
2022/03/29 01:55:09;;;;;;;39.08;25.23;;;;;;;6.91;82.83;101511.28;5071746;28;20070;-76
2022/03/29 01:57:34;;;;;;;38.20;25.83;;;;;;;6.93;82.98;101503.34;5072753;28;20020;-76
2022/03/29 02:02:44;;;;;;;38.15;25.73;;;;;;;6.93;83.57;101496.34;5076537;28;20059;-76
2022/03/29 02:05:09;;;;;;;38.22;25.65;;;;;;;6.95;83.50;101496.28;5091826;28;20444;-75
2022/03/29 02:07:35;;;;;;;41.42;27.00;;;;;;;6.92;83.71;101486.81;5091744;28;20016;-76
2022/03/29 02:10:01;;;;;;;39.65;26.13;;;;;;;6.93;83.65;101487.66;5093418;28;20023;-77
2022/03/29 02:12:27;;;;;;;46.20;26.90;;;;;;;6.95;84.02;101488.44;5093501;28;20074;-76
2022/03/29 02:14:52;;;;;;;38.33;27.02;;;;;;;6.96;84.21;101479.66;5081716;28;20033;-76
2022/03/29 02:17:18;;;;;;;42.78;29.08;;;;;;;6.97;84.28;101489.19;5067715;28;20388;-76
2022/03/29 02:19:43;;;;;;;42.92;27.27;;;;;;;6.93;83.77;101478.03;5068904;28;20016;-76
2022/03/29 02:22:09;;;;;;;40.15;26.30;;;;;;;6.90;83.79;101479.03;5071990;28;20035;-76
2022/03/29 02:24:34;;;;;;;40.25;28.33;;;;;;;6.88;84.16;101478.25;5073113;28;20025;-75
2022/03/29 02:27:00;;;;;;;41.08;27.55;;;;;;;6.88;84.05;101469.56;5072931;28;20465;-76
2022/03/29 02:29:25;;;;;;;40.67;28.73;;;;;;;6.88;84.29;101469.56;5071000;28;20039;-76
2022/03/29 02:31:51;;;;;;;40.55;29.00;;;;;;;6.85;84.53;101462.72;5071437;28;20024;-76
2022/03/29 02:34:16;;;;;;;44.10;28.48;;;;;;;6.85;84.75;101452.25;5066582;28;20041;-76
2022/03/29 02:36:41;;;;;;;44.63;28.98;;;;;;;6.84;84.82;101450.56;5071154;28;20029;-76
2022/03/29 02:39:07;;;;;;;44.92;29.92;;;;;;;6.82;85.09;101455.03;5071831;28;20112;-76
2022/03/29 02:41:32;;;;;;;45.60;29.75;;;;;;;6.82;85.00;101457.63;5071899;28;20042;-76
2022/03/29 02:43:58;;;;;;;41.45;28.38;;;;;;;6.83;84.96;101453.25;5071757;28;20021;-76
2022/03/29 02:46:23;;;;;;;47.30;29.92;;;;;;;6.82;85.15;101449.78;5070965;28;20028;-76
2022/03/29 02:48:48;;;;;;;45.63;30.48;;;;;;;6.82;85.28;101446.34;5071018;28;20036;-75
2022/03/29 02:51:14;;;;;;;45.28;30.38;;;;;;;6.83;85.27;101440.19;5071354;28;20119;-76
2022/03/29 02:53:39;;;;;;;47.55;31.30;;;;;;;6.83;85.46;101441.03;5079109;28;20079;-75
2022/03/29 02:56:05;;;;;;;48.85;31.85;;;;;;;6.84;85.45;101434.88;5052248;28;20493;-75
2022/03/29 02:58:30;;;;;;;42.80;30.00;;;;;;;6.81;85.43;101431.56;5051656;28;20455;-76
2022/03/29 03:00:55;;;;;;;45.60;31.95;;;;;;;6.81;85.09;101428.94;5073552;28;20792;-76
2022/03/29 03:03:21;;;;;;;44.35;31.27;;;;;;;6.83;85.37;101434.94;5086362;28;20255;-75
2022/03/29 03:05:46;;;;;;;46.63;32.05;;;;;;;6.82;85.55;101430.63;5071501;28;20054;-75
2022/03/29 03:08:13;;;;;;;48.50;32.20;;;;;;;6.84;85.36;101427.03;5070000;28;20487;-76
2022/03/29 03:10:38;;;;;;;47.58;33.95;;;;;;;6.82;85.68;101422.78;5080408;28;20021;-76
2022/03/29 03:13:03;;;;;;;45.78;32.67;;;;;;;6.85;85.74;101428.72;5071341;28;20040;-75
2022/03/29 03:15:29;;;;;;;50.83;35.10;;;;;;;6.85;85.75;101418.25;5071841;28;20020;-75
2022/03/29 03:17:55;;;;;;;51.70;35.92;;;;;;;6.88;85.77;101412.88;5070617;28;20107;-75
2022/03/29 03:20:21;;;;;;;53.55;35.47;;;;;;;6.89;85.73;101414.56;5086575;28;20475;-76
2022/03/29 03:22:47;;;;;;;54.72;36.15;;;;;;;6.90;85.93;101411.03;5069642;28;20024;-76
2022/03/29 03:25:13;;;;;;;53.20;36.25;;;;;;;6.94;86.15;101411.72;5064135;28;20428;-76
2022/03/29 03:27:40;;;;;;;58.42;37.25;;;;;;;6.97;85.44;101408.09;5069378;28;20020;-76
2022/03/29 03:30:08;;;;;;;57.00;37.35;;;;;;;6.97;85.72;101408.09;5069791;28;20059;-76
2022/03/29 03:32:33;;;;;;;52.38;35.83;;;;;;;6.98;85.60;101401.94;5069200;28;20119;-75
2022/03/29 03:34:59;;;;;;;55.72;37.42;;;;;;;6.98;85.78;101402.78;5069330;28;20132;-75
2022/03/29 03:37:26;;;;;;;56.88;38.80;;;;;;;6.99;85.86;101399.25;5070750;28;20052;-76
2022/03/29 03:39:52;;;;;;;55.75;37.85;;;;;;;7.01;85.14;101402.63;5070119;28;20534;-75
2022/03/29 03:42:17;;;;;;;56.85;38.25;;;;;;;6.99;85.77;101395.78;5067790;28;20028;-76
2022/03/29 03:44:43;;;;;;;56.22;37.90;;;;;;;7.01;85.98;101396.56;5064612;28;20032;-76
2022/03/29 03:47:08;;;;;;;56.70;38.47;;;;;;;7.00;85.62;101400.09;5069710;28;20431;-76
2022/03/29 03:49:34;;;;;;;56.45;38.53;;;;;;;6.98;86.19;101397.56;5069349;28;20055;-76
2022/03/29 03:52:01;;;;;;;60.83;40.10;;;;;;;6.97;86.24;101395.03;5068587;28;20016;-76
2022/03/29 03:54:26;;;;;;;60.65;41.42;;;;;;;6.97;85.90;101398.47;5068753;28;20063;-75
2022/03/29 03:56:51;;;;;;;58.50;39.80;;;;;;;6.94;86.28;101396.03;5068897;28;20067;-75
2022/03/29 03:59:17;;;;;;;56.72;40.15;;;;;;;6.95;85.67;101392.47;5070161;28;20028;-76
2022/03/29 04:01:42;;;;;;;60.38;39.80;;;;;;;6.94;86.07;101387.31;5056878;28;20020;-76
2022/03/29 04:04:07;;;;;;;60.45;40.75;;;;;;;6.93;85.71;101389.09;5074099;28;20036;-76
2022/03/29 04:06:33;;;;;;;58.45;38.90;;;;;;;6.95;85.53;101386.41;5062315;28;20063;-76
2022/03/29 04:08:58;;;;;;;60.13;41.83;;;;;;;6.95;85.84;101381.16;5061618;28;20103;-75
2022/03/29 04:11:24;;;;;;;58.63;40.38;;;;;;;6.94;86.06;101371.63;5068796;28;20028;-76
2022/03/29 04:13:49;;;;;;;56.40;39.53;;;;;;;6.91;85.86;101373.47;5068045;28;20052;-75
2022/03/29 04:16:15;;;;;;;63.67;41.42;;;;;;;6.88;85.93;101359.72;5069015;28;20032;-75
2022/03/29 04:18:40;;;;;;;63.25;42.03;;;;;;;6.88;86.01;101371.03;5068581;28;20031;-76
2022/03/29 04:21:08;;;;;;;64.22;42.17;;;;;;;6.86;86.29;101367.63;5069248;28;20528;-76
2022/03/29 04:23:35;;;;;;;62.85;42.65;;;;;;;6.83;86.42;101359.94;5064957;28;20029;-76
2022/03/29 04:26:03;;;;;;;61.67;41.58;;;;;;;6.82;86.30;101354.78;5065716;28;20024;-75
2022/03/29 04:28:28;;;;;;;63.63;42.90;;;;;;;6.83;86.05;101356.47;5056791;28;20052;-76
2022/03/29 04:30:55;;;;;;;61.08;42.83;;;;;;;6.81;86.37;101351.34;5043613;28;20501;-76
2022/03/29 04:33:21;;;;;;;64.18;44.17;;;;;;;6.77;86.38;101346.31;5063999;28;20078;-76
2022/03/29 04:35:47;;;;;;;62.72;43.30;;;;;;;6.77;86.31;101335.84;5064769;28;20024;-75
2022/03/29 04:38:12;;;;;;;65.43;44.78;;;;;;;6.76;86.22;101340.22;5068043;28;20039;-76
2022/03/29 04:40:38;;;;;;;62.40;43.17;;;;;;;6.74;86.45;101331.63;5068200;28;20040;-76
2022/03/29 04:43:04;;;;;;;65.35;45.08;;;;;;;6.72;86.58;101336.06;5062686;28;20376;-76
2022/03/29 04:45:29;;;;;;;66.65;45.45;;;;;;;6.69;86.55;101333.63;5054716;28;20544;-76
2022/03/29 04:47:55;;;;;;;74.47;44.42;;;;;;;6.68;86.29;101342.38;5066388;28;20025;-76
2022/03/29 04:50:20;;;;;;;67.57;45.40;;;;;;;6.67;86.90;101342.47;5050270;28;20524;-75
2022/03/29 04:52:47;;;;;;;67.47;45.33;;;;;;;6.65;86.81;101332.09;5057075;28;20025;-76
2022/03/29 04:55:17;;;;;;;66.13;45.47;;;;;;;6.64;87.19;101334.78;5078540;28;20483;-76
2022/03/29 04:57:44;;;;;;;68.07;45.88;;;;;;;6.63;87.05;101331.31;5074915;28;20024;-75
2022/03/29 05:00:12;;;;;;;68.38;45.92;;;;;;;6.60;87.32;101332.31;5077079;28;20016;-75
2022/03/29 05:02:38;;;;;;;66.57;45.60;;;;;;;6.60;87.11;101334.09;5074117;28;20020;-76
2022/03/29 05:05:04;;;;;;;69.82;46.30;;;;;;;6.59;87.23;101333.25;5072263;28;20106;-76
2022/03/29 05:07:30;;;;;;;68.15;47.63;;;;;;;6.57;87.22;101331.63;5069289;28;20532;-76
2022/03/29 05:09:55;;;;;;;68.35;47.42;;;;;;;6.56;87.65;101329.94;5068664;28;20024;-76
2022/03/29 05:12:20;;;;;;;68.60;47.55;;;;;;;6.55;87.20;101330.84;5079392;28;20028;-76
2022/03/29 05:14:46;;;;;;;72.20;48.40;;;;;;;6.53;87.16;101322.25;5076872;28;20100;-75
2022/03/29 05:17:11;;;;;;;71.70;48.28;;;;;;;6.51;87.76;101322.31;5065643;28;20027;-75
2022/03/29 05:19:36;;;;;;;68.47;46.42;;;;;;;6.52;87.36;101320.56;5064694;28;20060;-75
2022/03/29 05:22:02;;;;;;;77.35;47.95;;;;;;;6.51;87.56;101322.31;5060841;28;20056;-75
2022/03/29 05:24:28;;;;;;;70.25;47.70;;;;;;;6.49;87.74;101318.09;5051809;28;20105;-75
2022/03/29 05:26:53;;;;;;;67.68;48.42;;;;;;;6.48;87.71;101324.25;5068296;28;20111;-75
2022/03/29 05:29:19;;;;;;;69.50;47.97;;;;;;;6.46;87.76;101318.25;5065543;28;20024;-76
2022/03/29 05:31:44;;;;;;;69.60;48.45;;;;;;;6.46;87.42;101320.84;5069404;28;20033;-76
2022/03/29 05:34:10;;;;;;;71.80;49.05;;;;;;;6.45;88.01;101329.63;5072024;28;20040;-76
2022/03/29 05:36:36;;;;;;;72.50;48.67;;;;;;;6.43;87.71;101321.00;5069124;28;20037;-75
2022/03/29 05:39:03;;;;;;;70.43;47.78;;;;;;;6.43;87.75;101326.25;5063369;28;20024;-75
2022/03/29 05:41:28;;;;;;;75.78;49.65;;;;;;;6.40;87.85;101326.34;5067346;28;20732;-75
2022/03/29 05:43:54;;;;;;;70.78;48.35;;;;;;;6.39;87.75;101329.91;5067972;28;20028;-76
2022/03/29 05:49:03;;;;;;;75.32;50.40;;;;;;;6.35;88.30;101323.13;5057170;28;20070;-76
2022/03/29 05:51:29;;;;;;;83.47;52.75;;;;;;;6.32;88.27;101315.44;5064589;28;20019;-75
2022/03/29 05:53:56;;;;;;;80.05;50.67;;;;;;;6.32;88.52;101321.50;5064076;28;20033;-75
2022/03/29 05:56:22;;;;;;;84.28;51.97;;;;;;;6.32;88.85;101323.28;5068682;28;20044;-76
2022/03/29 05:58:50;;;;;;;88.80;52.50;;;;;;;6.29;88.71;101325.13;5067179;28;20028;-76
2022/03/29 06:01:15;;;;;;;84.22;53.17;;;;;;;6.29;88.86;101319.91;5067181;28;20472;-75
2022/03/29 06:03:41;;;;;;;87.10;53.65;;;;;;;6.28;89.18;101328.66;5063352;28;20024;-77
2022/03/29 06:06:06;;;;;;;87.80;53.33;;;;;;;6.29;89.47;101324.28;5065824;28;20460;-78
2022/03/29 06:08:32;;;;;;;89.50;53.80;;;;;;;6.27;89.73;101326.97;5068812;28;20525;-77
2022/03/29 06:10:58;;;;;;;89.57;53.75;;;;;;;6.27;89.57;101316.50;5068763;28;20095;-77
2022/03/29 06:13:24;;;;;;;88.22;54.05;;;;;;;6.26;89.69;101319.19;5067446;28;20020;-78
2022/03/29 06:15:50;;;;;;;89.00;54.15;;;;;;;6.24;89.48;101316.66;5070534;28;20032;-78
2022/03/29 06:18:15;;;;;;;91.40;53.72;;;;;;;6.27;89.97;101321.75;5071436;28;20032;-77
2022/03/29 06:20:40;;;;;;;89.70;54.40;;;;;;;6.27;89.71;101321.75;5071616;28;20530;-75
2022/03/29 06:23:06;;;;;;;92.28;53.92;;;;;;;6.28;90.14;101318.22;5072826;28;20020;-76
2022/03/29 06:25:32;;;;;;;88.75;53.20;;;;;;;6.30;89.80;101318.13;5072912;28;20048;-75
2022/03/29 06:27:57;;;;;;;91.82;55.65;;;;;;;6.32;90.35;101318.06;5071851;28;20104;-76
2022/03/29 06:30:23;;;;;;;94.38;57.30;;;;;;;6.31;90.88;101316.38;5059518;28;20399;-76
2022/03/29 06:32:50;;;;;;;92.72;55.85;;;;;;;6.31;90.43;101305.91;5070812;28;20036;-75
2022/03/29 06:35:21;;;;;;;94.60;55.67;;;;;;;6.34;90.67;101321.44;5071677;28;20435;-76
2022/03/29 06:37:48;;;;;;;96.22;55.65;;;;;;;6.34;90.44;101311.81;5072576;28;20029;-76
2022/03/29 06:40:13;;;;;;;96.60;56.20;;;;;;;6.35;90.74;101315.28;5079648;28;20409;-77
2022/03/29 06:42:39;;;;;;;95.63;55.58;;;;;;;6.35;90.62;101318.75;5089986;28;20021;-76
2022/03/29 06:45:05;;;;;;;99.32;56.45;;;;;;;6.34;90.60;101310.97;5072131;28;20028;-77
2022/03/29 06:47:31;;;;;;;104.43;57.65;;;;;;;6.33;90.95;101324.97;5055697;28;20105;-77
2022/03/29 06:49:56;;;;;;;102.68;58.22;;;;;;;6.33;90.72;101330.19;5071321;28;20598;-77
2022/03/29 06:52:26;;;;;;;102.30;57.08;;;;;;;6.33;90.90;101317.13;5072029;28;20048;-76
2022/03/29 06:54:51;;;;;;;100.90;55.75;;;;;;;6.32;90.95;101312.81;5072329;28;20483;-76
2022/03/29 06:57:16;;;;;;;101.80;57.33;;;;;;;6.35;91.25;101308.28;5067389;28;20027;-77
2022/03/29 06:59:42;;;;;;;103.80;58.85;;;;;;;6.34;90.92;101311.81;5079840;28;20371;-76
2022/03/29 07:02:07;;;;;;;103.40;58.47;;;;;;;6.35;91.41;101318.75;5061128;28;20019;-76
2022/03/29 07:04:33;;;;;;;102.85;55.88;;;;;;;6.35;91.81;101312.69;5064046;28;20028;-76
2022/03/29 07:06:58;;;;;;;107.68;57.90;;;;;;;6.35;91.08;101302.22;5067587;28;20032;-77
2022/03/29 07:12:07;;;;;;;110.03;59.35;;;;;;;6.34;91.27;101301.38;5070837;28;20150;-76
2022/03/29 07:14:32;;;;;;;107.55;58.05;;;;;;;6.36;91.55;101299.53;5069029;28;20107;-76
2022/03/29 07:16:59;;;;;;;105.47;58.53;;;;;;;6.36;91.60;101299.53;5070769;28;20035;-76
2022/03/29 07:19:27;;;;;;;112.13;59.63;;;;;;;6.36;91.65;101304.75;5071278;28;20607;-77
2022/03/29 07:21:52;;;;;;;107.70;59.88;;;;;;;6.35;91.64;101307.44;5086481;28;20021;-76
2022/03/29 07:24:17;;;;;;;110.82;59.53;;;;;;;6.37;91.77;101316.06;5066699;28;21672;-76
2022/03/29 07:26:43;;;;;;;108.88;58.50;;;;;;;6.37;91.59;101310.84;5069775;28;20032;-77
2022/03/29 07:29:08;;;;;;;106.78;58.40;;;;;;;6.39;91.72;101317.66;5069644;28;20388;-77
2022/03/29 07:31:34;;;;;;;109.70;58.70;;;;;;;6.40;91.81;101315.91;5070299;28;20107;-77
2022/03/29 07:33:59;;;;;;;109.57;56.83;;;;;;;6.41;91.83;101320.25;5067636;28;20033;-77
2022/03/29 07:36:25;;;;;;;107.60;57.60;;;;;;;6.40;91.87;101321.13;5064680;28;20024;-77
2022/03/29 07:38:50;;;;;;;108.97;57.25;;;;;;;6.40;92.22;101321.13;5068663;28;20025;-76
2022/03/29 07:41:16;;;;;;;109.03;55.70;;;;;;;6.42;91.99;101329.78;5069133;28;20108;-75
2022/03/29 07:43:42;;;;;;;111.82;57.80;;;;;;;6.42;91.89;101329.78;5066874;28;20043;-76
2022/03/29 07:46:07;;;;;;;110.90;58.72;;;;;;;6.45;91.92;101338.31;5068144;28;20024;-77
2022/03/29 07:48:32;;;;;;;111.28;57.72;;;;;;;6.44;91.95;101334.00;5065161;28;20016;-76
2022/03/29 07:50:58;;;;;;;114.35;57.85;;;;;;;6.45;92.02;101340.06;5067352;28;20071;-76
2022/03/29 07:53:25;;;;;;;115.68;58.90;;;;;;;6.45;92.22;101350.53;5070219;28;20112;-77
2022/03/29 07:55:51;;;;;;;117.22;60.00;;;;;;;6.46;92.03;101341.78;5069325;28;20424;-77
2022/03/29 07:58:19;;;;;;;116.18;58.42;;;;;;;6.47;92.15;101339.09;5069986;28;20056;-77
2022/03/29 08:00:46;;;;;;;115.88;58.47;;;;;;;6.49;92.23;101336.38;5068628;28;20025;-77
2022/03/29 08:03:15;;;;;;;110.53;56.97;;;;;;;6.51;92.07;101334.53;5076028;28;20016;-77
2022/03/29 08:05:42;;;;;;;116.57;56.42;;;;;;;6.53;91.79;101332.69;5069822;28;20017;-77
2022/03/29 08:08:11;;;;;;;116.75;56.78;;;;;;;6.54;91.74;101330.00;5057842;28;20028;-77
2022/03/29 08:10:37;;;;;;;114.32;57.03;;;;;;;6.56;91.70;101335.16;5059069;28;20044;-77
2022/03/29 08:13:04;;;;;;;115.30;60.15;;;;;;;6.54;91.96;101326.56;5087557;28;20473;-77
2022/03/29 08:15:30;;;;;;;113.07;57.53;;;;;;;6.59;91.73;101328.00;5071034;28;20629;-77
2022/03/29 08:17:57;;;;;;;121.82;60.00;;;;;;;6.60;91.75;101326.25;5071039;28;20020;-77
2022/03/29 08:20:22;;;;;;;115.90;56.80;;;;;;;6.64;91.83;101325.16;5070282;28;20028;-77
2022/03/29 08:22:48;;;;;;;119.57;59.03;;;;;;;6.64;91.99;101313.84;5070527;28;20098;-77
2022/03/29 08:25:18;;;;;;;120.00;60.20;;;;;;;6.67;92.01;101321.53;5070731;28;20035;-77
2022/03/29 08:27:45;;;;;;;113.13;58.60;;;;;;;6.69;91.71;101317.94;5063583;28;20028;-77
2022/03/29 08:30:12;;;;;;;120.57;58.65;;;;;;;6.70;91.90;101319.63;5070851;28;20040;-76
2022/03/29 08:32:38;;;;;;;113.60;58.20;;;;;;;6.74;91.76;101326.38;5070291;28;20529;-77
2022/03/29 08:35:05;;;;;;;113.80;57.88;;;;;;;6.75;91.77;101322.84;5069657;28;20044;-77
2022/03/29 08:37:30;;;;;;;119.93;59.05;;;;;;;6.78;91.67;101317.47;5069821;28;20113;-77
2022/03/29 08:39:56;;;;;;;119.70;57.08;;;;;;;6.80;91.91;101318.22;5069154;28;20476;-76
2022/03/29 08:42:23;;;;;;;119.97;59.13;;;;;;;6.81;91.57;101317.34;5060706;28;20025;-77
2022/03/29 08:44:49;;;;;;;117.78;58.03;;;;;;;6.85;91.47;101320.63;5068896;28;20031;-77
2022/03/29 08:47:15;;;;;;;120.55;58.63;;;;;;;6.87;91.79;101331.88;5070461;28;20036;-75
2022/03/29 08:49:42;;;;;;;114.80;55.60;;;;;;;6.89;91.63;101330.03;5069488;28;20027;-76
2022/03/29 08:52:08;;;;;;;112.30;57.42;;;;;;;6.88;91.67;101334.41;5069862;28;20089;-77
2022/03/29 08:54:34;;;;;;;119.25;57.45;;;;;;;6.90;91.27;101335.16;5070377;28;20528;-76
2022/03/29 08:57:00;;;;;;;119.88;57.72;;;;;;;6.90;91.48;101332.56;5068267;28;20443;-77
2022/03/29 08:59:27;;;;;;;119.57;56.60;;;;;;;6.93;91.49;101328.09;5044834;28;20059;-76
2022/03/29 09:01:55;;;;;;;116.43;56.83;;;;;;;6.96;91.53;101320.09;5049340;28;20020;-76
2022/03/29 09:04:22;;;;;;;115.82;56.15;;;;;;;6.97;91.31;101321.78;5049425;28;20025;-77
2022/03/29 09:06:54;;;;;;;112.68;56.47;;;;;;;7.01;91.16;101320.69;5082145;28;20062;-77
2022/03/29 09:09:30;;;;;;;121.13;58.38;;;;;;;7.04;91.00;101312.69;5084327;28;20020;-76
2022/03/29 09:12:16;;;;;;;121.93;59.28;;;;;;;7.08;91.01;101308.97;5084719;28;20170;-77
2022/03/29 09:14:58;;;;;;;125.30;60.47;;;;;;;7.10;91.33;101309.75;5061287;28;20074;-77
2022/03/29 09:17:26;;;;;;;122.72;59.10;;;;;;;7.10;91.23;101307.13;5059846;28;20086;-76
2022/03/29 09:19:52;;;;;;;123.43;60.35;;;;;;;7.14;91.17;101308.66;5068212;28;20044;-77
2022/03/29 09:22:46;;;;;;;124.22;59.60;;;;;;;7.19;91.17;101309.25;5067545;28;20069;-77
2022/03/29 09:25:22;;;;;;;122.57;57.63;;;;;;;7.18;90.94;101311.03;5067070;28;20020;-76
2022/03/29 09:28:12;;;;;;;130.20;61.42;;;;;;;7.23;90.82;101316.03;5068060;28;20027;-77
2022/03/29 09:30:40;;;;;;;136.32;60.03;;;;;;;7.21;90.37;101307.44;5068145;28;20038;-76
2022/03/29 09:33:12;;;;;;;142.85;62.28;;;;;;;7.23;90.41;101310.81;5061843;28;20056;-77
2022/03/29 09:36:02;;;;;;;147.32;60.80;;;;;;;7.28;89.85;101306.19;5067327;28;20166;-78
2022/03/29 09:38:30;;;;;;;134.40;60.72;;;;;;;7.27;90.12;101307.09;5050722;28;20029;-77
2022/03/29 09:40:58;;;;;;;136.35;60.70;;;;;;;7.31;90.01;101300.78;5067427;28;20024;-76
2022/03/29 09:43:25;;;;;;;136.65;60.42;;;;;;;7.34;90.11;101295.38;5074210;28;20392;-77
2022/03/29 09:45:57;;;;;;;142.90;62.05;;;;;;;7.34;89.86;101287.53;5071160;28;20021;-77
2022/03/29 09:48:35;;;;;;;144.50;62.42;;;;;;;7.38;89.51;101294.28;5084561;28;20450;-77
2022/03/29 09:51:18;;;;;;;155.00;65.22;;;;;;;7.41;89.55;101290.66;5057155;28;20036;-77
2022/03/29 09:53:47;;;;;;;146.40;62.63;;;;;;;7.44;89.84;101286.09;5055968;28;20337;-77
2022/03/29 09:56:15;;;;;;;149.75;63.67;;;;;;;7.46;89.41;101284.25;5061810;28;20520;-77
2022/03/29 09:58:41;;;;;;;141.95;63.35;;;;;;;7.48;89.32;101287.63;5082576;28;20020;-76
2022/03/29 10:01:24;;;;;;;143.30;62.72;;;;;;;7.53;89.23;101275.13;5073605;28;20492;-76
2022/03/29 10:03:54;;;;;;;142.60;62.80;;;;;;;7.58;89.54;101271.41;5071407;28;20492;-77
2022/03/29 10:06:22;;;;;;;141.55;62.33;;;;;;;7.62;89.37;101267.72;5072331;28;20381;-77
2022/03/29 10:11:35;;;;;;;131.05;62.20;;;;;;;7.66;89.36;101264.00;5072113;28;20105;-77
2022/03/29 10:14:04;;;;;;;129.45;61.47;;;;;;;7.71;88.97;101261.97;5071127;28;20028;-77
2022/03/29 10:16:30;;;;;;;124.85;59.88;;;;;;;7.70;88.79;101257.66;5056664;28;20067;-77
2022/03/29 10:18:56;;;;;;;127.30;60.72;;;;;;;7.72;88.77;101253.19;5058606;28;20075;-77
2022/03/29 10:21:22;;;;;;;123.82;59.92;;;;;;;7.75;88.70;101258.25;5058088;28;20021;-77
2022/03/29 10:23:49;;;;;;;115.82;57.47;;;;;;;7.75;88.62;101264.31;5065914;28;20035;-76
2022/03/29 10:26:21;;;;;;;107.80;55.63;;;;;;;7.78;88.37;101258.06;5042000;28;20485;-76
2022/03/29 10:28:48;;;;;;;103.53;55.55;;;;;;;7.79;88.12;101255.38;5051090;28;20392;-74
2022/03/29 10:31:27;;;;;;;100.95;53.65;;;;;;;7.83;88.14;101258.66;5056638;28;20043;-74
2022/03/29 10:34:10;;;;;;;97.82;52.88;;;;;;;7.86;88.22;101255.88;5058328;28;20045;-74
2022/03/29 10:37:07;;;;;;;101.95;54.65;;;;;;;7.89;88.13;101255.69;5058129;28;20025;-74
2022/03/29 10:39:44;;;;;;;92.82;53.28;;;;;;;7.92;88.08;101252.03;5055023;28;20611;-74
2022/03/29 10:42:36;;;;;;;88.85;50.72;;;;;;;7.93;88.04;101246.72;5054502;28;20063;-74
2022/03/29 10:45:24;;;;;;;90.30;51.13;;;;;;;7.95;88.20;101244.00;5069156;28;20081;-74
2022/03/29 10:48:09;;;;;;;93.45;51.22;;;;;;;8.01;88.16;101239.28;5086077;28;20021;-75
2022/03/29 10:50:51;;;;;;;94.43;52.95;;;;;;;8.08;87.73;101231.91;5061537;28;20032;-75
2022/03/29 10:53:25;;;;;;;90.13;52.78;;;;;;;8.10;87.27;101233.53;5057083;28;20021;-76
2022/03/29 10:56:12;;;;;;;86.78;50.15;;;;;;;8.18;86.83;101235.69;5062470;28;20036;-78
2022/03/29 10:59:03;;;;;;;85.78;50.63;;;;;;;8.22;86.84;101231.97;5057054;28;20041;-78
2022/03/29 11:01:35;;;;;;;86.72;50.45;;;;;;;8.26;86.73;101232.63;5063675;28;20085;-78
2022/03/29 11:04:04;;;;;;;79.35;47.15;;;;;;;8.33;86.45;101226.09;5051766;28;20017;-77
2022/03/29 11:06:30;;;;;;;79.65;49.08;;;;;;;8.39;86.65;101217.88;5051715;28;20025;-77
2022/03/29 11:09:04;;;;;;;76.53;46.85;;;;;;;8.43;86.48;101215.03;5056591;28;20031;-77
2022/03/29 11:11:47;;;;;;;81.28;47.05;;;;;;;8.48;85.91;101209.50;5071409;28;20484;-77
2022/03/29 11:14:28;;;;;;;;;;;;;;;8.56;85.75;101202.00;5071668;28;20033;-77
2022/03/29 11:17:14;;;;;;;76.28;45.97;;;;;;;8.56;86.08;101209.03;5069983;28;20304;-77
2022/03/29 11:19:46;;;;;;;74.95;45.92;;;;;;;8.64;85.92;101212.03;5061171;28;20151;-77
2022/03/29 11:22:31;;;;;;;82.65;48.33;;;;;;;8.70;85.78;101209.03;5058828;28;20036;-77
2022/03/29 11:25:12;;;;;;;85.63;49.40;;;;;;;8.76;85.71;101206.88;5058404;28;20044;-77
2022/03/29 11:27:38;;;;;;;83.05;49.65;;;;;;;8.79;85.39;101206.69;5068226;28;20055;-77